sensor_id;sensor_type;location;lat;lon;timestamp;temperature;humidity
13585;DHT22;6863;48.402;9.994;2023-08-06T00:00:00;14.90;99.90
13585;DHT22;6863;48.402;9.994;2023-08-06T00:02:26;14.90;99.90
13585;DHT22;6863;48.402;9.994;2023-08-06T00:04:51;15.00;99.90
13585;DHT22;6863;48.402;9.994;2023-08-06T00:07:18;15.00;99.90
13585;DHT22;6863;48.402;9.994;2023-08-06T00:09:43;15.00;99.90
13585;DHT22;6863;48.402;9.994;2023-08-06T00:12:09;15.10;99.90
13585;DHT22;6863;48.402;9.994;2023-08-06T00:14:34;15.00;99.90
13585;DHT22;6863;48.402;9.994;2023-08-06T00:17:00;15.00;99.90
13585;DHT22;6863;48.402;9.994;2023-08-06T00:19:25;15.00;99.90
13585;DHT22;6863;48.402;9.994;2023-08-06T00:21:51;14.90;99.90
13585;DHT22;6863;48.402;9.994;2023-08-06T00:24:16;14.90;99.90
13585;DHT22;6863;48.402;9.994;2023-08-06T00:26:42;14.90;99.90
13585;DHT22;6863;48.402;9.994;2023-08-06T00:29:08;14.90;99.90
13585;DHT22;6863;48.402;9.994;2023-08-06T00:31:33;14.90;99.90
13585;DHT22;6863;48.402;9.994;2023-08-06T00:33:59;14.80;99.90
13585;DHT22;6863;48.402;9.994;2023-08-06T00:36:24;14.80;99.90
13585;DHT22;6863;48.402;9.994;2023-08-06T00:38:50;14.80;99.90
13585;DHT22;6863;48.402;9.994;2023-08-06T00:41:15;14.80;99.90
13585;DHT22;6863;48.402;9.994;2023-08-06T00:43:41;14.80;99.90
13585;DHT22;6863;48.402;9.994;2023-08-06T00:46:06;14.80;99.90
13585;DHT22;6863;48.402;9.994;2023-08-06T00:48:32;14.80;99.90
13585;DHT22;6863;48.402;9.994;2023-08-06T00:50:59;14.80;99.90
13585;DHT22;6863;48.402;9.994;2023-08-06T00:53:25;14.80;99.90
13585;DHT22;6863;48.402;9.994;2023-08-06T00:55:51;14.80;99.90
13585;DHT22;6863;48.402;9.994;2023-08-06T00:58:17;14.80;99.90
13585;DHT22;6863;48.402;9.994;2023-08-06T01:00:42;14.80;99.90
13585;DHT22;6863;48.402;9.994;2023-08-06T01:03:08;14.80;99.90
13585;DHT22;6863;48.402;9.994;2023-08-06T01:05:34;14.80;99.90
13585;DHT22;6863;48.402;9.994;2023-08-06T01:13:33;14.60;99.90
13585;DHT22;6863;48.402;9.994;2023-08-06T01:16:03;14.60;99.90
13585;DHT22;6863;48.402;9.994;2023-08-06T01:18:31;14.60;99.90
13585;DHT22;6863;48.402;9.994;2023-08-06T01:20:57;14.50;99.90
13585;DHT22;6863;48.402;9.994;2023-08-06T01:23:23;14.50;99.90
13585;DHT22;6863;48.402;9.994;2023-08-06T01:29:18;14.30;99.90
13585;DHT22;6863;48.402;9.994;2023-08-06T01:31:26;14.20;99.90
13585;DHT22;6863;48.402;9.994;2023-08-06T01:33:53;14.10;99.90
13585;DHT22;6863;48.402;9.994;2023-08-06T01:36:19;14.00;99.90
13585;DHT22;6863;48.402;9.994;2023-08-06T01:38:45;13.90;99.90
13585;DHT22;6863;48.402;9.994;2023-08-06T01:41:11;13.90;99.90
13585;DHT22;6863;48.402;9.994;2023-08-06T01:43:37;13.90;99.90
13585;DHT22;6863;48.402;9.994;2023-08-06T01:46:02;13.90;99.90
13585;DHT22;6863;48.402;9.994;2023-08-06T01:48:28;13.90;99.90
13585;DHT22;6863;48.402;9.994;2023-08-06T01:50:53;13.80;99.90
13585;DHT22;6863;48.402;9.994;2023-08-06T01:53:19;13.80;99.90
13585;DHT22;6863;48.402;9.994;2023-08-06T01:55:48;13.80;99.90
13585;DHT22;6863;48.402;9.994;2023-08-06T01:58:14;13.60;99.90
13585;DHT22;6863;48.402;9.994;2023-08-06T02:00:40;13.60;99.90
13585;DHT22;6863;48.402;9.994;2023-08-06T02:03:06;13.50;99.90
13585;DHT22;6863;48.402;9.994;2023-08-06T02:05:31;13.60;99.90
13585;DHT22;6863;48.402;9.994;2023-08-06T02:07:57;13.50;99.90
13585;DHT22;6863;48.402;9.994;2023-08-06T02:10:23;13.50;99.90
13585;DHT22;6863;48.402;9.994;2023-08-06T02:12:48;13.50;99.90
13585;DHT22;6863;48.402;9.994;2023-08-06T02:15:14;13.50;99.90
13585;DHT22;6863;48.402;9.994;2023-08-06T02:17:39;13.50;99.90
13585;DHT22;6863;48.402;9.994;2023-08-06T02:20:05;13.50;99.90
13585;DHT22;6863;48.402;9.994;2023-08-06T02:22:31;13.60;99.90
13585;DHT22;6863;48.402;9.994;2023-08-06T02:24:56;13.60;99.90
13585;DHT22;6863;48.402;9.994;2023-08-06T02:27:22;13.60;99.90
13585;DHT22;6863;48.402;9.994;2023-08-06T02:29:48;13.60;99.90
13585;DHT22;6863;48.402;9.994;2023-08-06T02:32:13;13.70;99.90
13585;DHT22;6863;48.402;9.994;2023-08-06T02:34:39;13.70;99.90
13585;DHT22;6863;48.402;9.994;2023-08-06T02:37:04;13.70;99.90
13585;DHT22;6863;48.402;9.994;2023-08-06T02:39:30;13.70;99.90
13585;DHT22;6863;48.402;9.994;2023-08-06T02:41:56;13.70;99.90
13585;DHT22;6863;48.402;9.994;2023-08-06T02:44:21;13.70;99.90
13585;DHT22;6863;48.402;9.994;2023-08-06T02:46:47;13.70;99.90
13585;DHT22;6863;48.402;9.994;2023-08-06T02:49:12;13.70;99.90
13585;DHT22;6863;48.402;9.994;2023-08-06T02:51:38;13.70;99.90
13585;DHT22;6863;48.402;9.994;2023-08-06T02:54:03;13.80;99.90
13585;DHT22;6863;48.402;9.994;2023-08-06T02:56:29;13.80;99.90
13585;DHT22;6863;48.402;9.994;2023-08-06T02:58:55;13.70;99.90
13585;DHT22;6863;48.402;9.994;2023-08-06T03:01:20;13.70;99.90
13585;DHT22;6863;48.402;9.994;2023-08-06T03:03:46;13.60;99.90
13585;DHT22;6863;48.402;9.994;2023-08-06T03:06:11;13.60;99.90
13585;DHT22;6863;48.402;9.994;2023-08-06T03:08:37;13.50;99.90
13585;DHT22;6863;48.402;9.994;2023-08-06T03:11:02;13.50;99.90
13585;DHT22;6863;48.402;9.994;2023-08-06T03:13:28;13.50;99.90
13585;DHT22;6863;48.402;9.994;2023-08-06T03:15:58;13.50;99.90
13585;DHT22;6863;48.402;9.994;2023-08-06T03:18:24;13.40;99.90
13585;DHT22;6863;48.402;9.994;2023-08-06T03:20:51;13.40;99.90
13585;DHT22;6863;48.402;9.994;2023-08-06T03:23:17;13.30;99.90
13585;DHT22;6863;48.402;9.994;2023-08-06T03:25:43;13.20;99.90
13585;DHT22;6863;48.402;9.994;2023-08-06T03:28:09;13.20;99.90
13585;DHT22;6863;48.402;9.994;2023-08-06T03:30:34;13.10;99.90
13585;DHT22;6863;48.402;9.994;2023-08-06T03:33:00;13.10;99.90
13585;DHT22;6863;48.402;9.994;2023-08-06T03:35:26;13.00;99.90
13585;DHT22;6863;48.402;9.994;2023-08-06T03:37:51;12.90;99.90
13585;DHT22;6863;48.402;9.994;2023-08-06T03:40:17;13.00;99.90
13585;DHT22;6863;48.402;9.994;2023-08-06T03:42:42;13.00;99.90
13585;DHT22;6863;48.402;9.994;2023-08-06T03:45:08;12.90;99.90
13585;DHT22;6863;48.402;9.994;2023-08-06T03:47:34;12.90;99.90
13585;DHT22;6863;48.402;9.994;2023-08-06T03:50:00;12.80;99.90
13585;DHT22;6863;48.402;9.994;2023-08-06T03:52:25;12.70;99.90
13585;DHT22;6863;48.402;9.994;2023-08-06T03:54:51;12.70;99.90
13585;DHT22;6863;48.402;9.994;2023-08-06T03:57:16;12.60;99.90
13585;DHT22;6863;48.402;9.994;2023-08-06T03:59:42;12.60;99.90
13585;DHT22;6863;48.402;9.994;2023-08-06T04:02:07;12.60;99.90
13585;DHT22;6863;48.402;9.994;2023-08-06T04:04:33;12.50;99.90
13585;DHT22;6863;48.402;9.994;2023-08-06T04:06:59;12.40;99.90
13585;DHT22;6863;48.402;9.994;2023-08-06T04:09:24;12.40;99.90
13585;DHT22;6863;48.402;9.994;2023-08-06T04:11:50;12.40;99.90
13585;DHT22;6863;48.402;9.994;2023-08-06T04:14:15;12.40;99.90
13585;DHT22;6863;48.402;9.994;2023-08-06T04:16:41;12.30;99.90
13585;DHT22;6863;48.402;9.994;2023-08-06T04:19:06;12.40;99.90
13585;DHT22;6863;48.402;9.994;2023-08-06T04:21:32;12.40;99.90
13585;DHT22;6863;48.402;9.994;2023-08-06T04:23:57;12.40;99.90
13585;DHT22;6863;48.402;9.994;2023-08-06T04:26:23;12.50;99.90
13585;DHT22;6863;48.402;9.994;2023-08-06T04:28:49;12.60;99.90
13585;DHT22;6863;48.402;9.994;2023-08-06T04:31:14;12.70;99.90
13585;DHT22;6863;48.402;9.994;2023-08-06T04:33:40;12.70;99.90
13585;DHT22;6863;48.402;9.994;2023-08-06T04:36:06;12.80;99.90
13585;DHT22;6863;48.402;9.994;2023-08-06T04:38:32;12.90;99.90
13585;DHT22;6863;48.402;9.994;2023-08-06T04:40:58;13.00;99.90
13585;DHT22;6863;48.402;9.994;2023-08-06T04:43:23;13.00;99.90
13585;DHT22;6863;48.402;9.994;2023-08-06T04:45:50;13.10;99.90
13585;DHT22;6863;48.402;9.994;2023-08-06T04:48:16;13.20;99.90
13585;DHT22;6863;48.402;9.994;2023-08-06T04:50:46;13.30;99.90
13585;DHT22;6863;48.402;9.994;2023-08-06T04:53:12;13.40;99.90
13585;DHT22;6863;48.402;9.994;2023-08-06T04:55:37;13.40;99.90
13585;DHT22;6863;48.402;9.994;2023-08-06T04:58:03;13.40;99.90
13585;DHT22;6863;48.402;9.994;2023-08-06T05:00:29;13.50;99.90
13585;DHT22;6863;48.402;9.994;2023-08-06T05:02:54;13.60;99.90
13585;DHT22;6863;48.402;9.994;2023-08-06T05:05:20;13.60;99.90
13585;DHT22;6863;48.402;9.994;2023-08-06T05:07:48;13.60;99.90
13585;DHT22;6863;48.402;9.994;2023-08-06T05:10:14;13.60;99.90
13585;DHT22;6863;48.402;9.994;2023-08-06T05:12:40;13.60;99.90
13585;DHT22;6863;48.402;9.994;2023-08-06T05:15:06;13.60;99.90
13585;DHT22;6863;48.402;9.994;2023-08-06T05:17:32;13.50;99.90
13585;DHT22;6863;48.402;9.994;2023-08-06T05:19:57;13.60;99.90
13585;DHT22;6863;48.402;9.994;2023-08-06T05:22:23;13.50;99.90
13585;DHT22;6863;48.402;9.994;2023-08-06T05:24:49;13.50;99.90
13585;DHT22;6863;48.402;9.994;2023-08-06T05:27:14;13.30;99.90
13585;DHT22;6863;48.402;9.994;2023-08-06T05:29:40;13.20;99.90
13585;DHT22;6863;48.402;9.994;2023-08-06T05:32:06;13.20;99.90
13585;DHT22;6863;48.402;9.994;2023-08-06T05:34:31;13.10;99.90
13585;DHT22;6863;48.402;9.994;2023-08-06T05:36:57;13.10;99.90
13585;DHT22;6863;48.402;9.994;2023-08-06T05:39:22;13.10;99.90
13585;DHT22;6863;48.402;9.994;2023-08-06T05:41:48;13.10;99.90
13585;DHT22;6863;48.402;9.994;2023-08-06T05:44:14;13.10;99.90
13585;DHT22;6863;48.402;9.994;2023-08-06T05:46:39;13.10;99.90
13585;DHT22;6863;48.402;9.994;2023-08-06T05:49:05;13.20;99.90
13585;DHT22;6863;48.402;9.994;2023-08-06T05:51:31;13.20;99.90
13585;DHT22;6863;48.402;9.994;2023-08-06T05:53:56;13.30;99.90
13585;DHT22;6863;48.402;9.994;2023-08-06T05:56:22;13.30;99.90
13585;DHT22;6863;48.402;9.994;2023-08-06T05:58:47;13.20;99.90
13585;DHT22;6863;48.402;9.994;2023-08-06T06:01:14;13.30;99.90
13585;DHT22;6863;48.402;9.994;2023-08-06T06:03:39;13.40;99.90
13585;DHT22;6863;48.402;9.994;2023-08-06T06:06:05;13.50;99.90
13585;DHT22;6863;48.402;9.994;2023-08-06T06:08:30;13.70;99.90
13585;DHT22;6863;48.402;9.994;2023-08-06T06:10:56;13.80;99.90
13585;DHT22;6863;48.402;9.994;2023-08-06T06:13:21;14.00;99.90
13585;DHT22;6863;48.402;9.994;2023-08-06T06:15:47;14.30;99.90
13585;DHT22;6863;48.402;9.994;2023-08-06T06:18:13;14.50;99.90
13585;DHT22;6863;48.402;9.994;2023-08-06T06:20:38;14.60;99.90
13585;DHT22;6863;48.402;9.994;2023-08-06T06:23:04;14.80;99.90
13585;DHT22;6863;48.402;9.994;2023-08-06T06:25:30;15.00;99.90
13585;DHT22;6863;48.402;9.994;2023-08-06T06:27:55;15.20;99.90
13585;DHT22;6863;48.402;9.994;2023-08-06T06:30:21;15.30;99.90
13585;DHT22;6863;48.402;9.994;2023-08-06T06:32:47;15.40;99.90
13585;DHT22;6863;48.402;9.994;2023-08-06T06:35:12;15.30;99.90
13585;DHT22;6863;48.402;9.994;2023-08-06T06:37:38;15.20;99.90
13585;DHT22;6863;48.402;9.994;2023-08-06T06:40:04;15.10;99.90
13585;DHT22;6863;48.402;9.994;2023-08-06T06:42:30;15.00;99.90
13585;DHT22;6863;48.402;9.994;2023-08-06T06:44:55;14.80;99.90
13585;DHT22;6863;48.402;9.994;2023-08-06T06:47:21;14.90;99.90
13585;DHT22;6863;48.402;9.994;2023-08-06T06:49:46;15.00;99.90
13585;DHT22;6863;48.402;9.994;2023-08-06T06:52:12;15.50;99.90
13585;DHT22;6863;48.402;9.994;2023-08-06T06:54:37;15.90;99.90
13585;DHT22;6863;48.402;9.994;2023-08-06T06:57:03;16.20;99.90
13585;DHT22;6863;48.402;9.994;2023-08-06T06:59:29;16.50;99.90
13585;DHT22;6863;48.402;9.994;2023-08-06T07:01:55;16.50;99.90
13585;DHT22;6863;48.402;9.994;2023-08-06T07:04:21;16.30;99.90
13585;DHT22;6863;48.402;9.994;2023-08-06T07:06:47;16.10;99.90
13585;DHT22;6863;48.402;9.994;2023-08-06T07:09:12;16.10;99.90
13585;DHT22;6863;48.402;9.994;2023-08-06T07:11:38;16.00;99.90
13585;DHT22;6863;48.402;9.994;2023-08-06T07:14:07;15.90;99.90
13585;DHT22;6863;48.402;9.994;2023-08-06T07:16:33;15.90;99.90
13585;DHT22;6863;48.402;9.994;2023-08-06T07:18:59;15.90;99.90
13585;DHT22;6863;48.402;9.994;2023-08-06T07:21:25;16.10;99.90
13585;DHT22;6863;48.402;9.994;2023-08-06T07:23:50;16.40;99.90
13585;DHT22;6863;48.402;9.994;2023-08-06T07:26:17;16.40;99.90
13585;DHT22;6863;48.402;9.994;2023-08-06T07:28:42;16.50;99.90
13585;DHT22;6863;48.402;9.994;2023-08-06T07:31:08;17.00;99.90
13585;DHT22;6863;48.402;9.994;2023-08-06T07:33:33;17.30;99.90
13585;DHT22;6863;48.402;9.994;2023-08-06T07:35:59;17.10;99.90
13585;DHT22;6863;48.402;9.994;2023-08-06T07:38:24;17.00;99.90
13585;DHT22;6863;48.402;9.994;2023-08-06T07:40:51;17.10;99.90
13585;DHT22;6863;48.402;9.994;2023-08-06T07:43:17;17.30;99.90
13585;DHT22;6863;48.402;9.994;2023-08-06T07:45:42;17.60;99.90
13585;DHT22;6863;48.402;9.994;2023-08-06T07:48:08;17.60;99.90
13585;DHT22;6863;48.402;9.994;2023-08-06T07:50:33;17.50;99.90
13585;DHT22;6863;48.402;9.994;2023-08-06T07:52:59;17.40;99.40
13585;DHT22;6863;48.402;9.994;2023-08-06T07:55:25;17.30;99.20
13585;DHT22;6863;48.402;9.994;2023-08-06T08:00:16;17.80;98.00
13585;DHT22;6863;48.402;9.994;2023-08-06T08:02:42;17.80;97.90
13585;DHT22;6863;48.402;9.994;2023-08-06T08:05:08;17.90;97.40
13585;DHT22;6863;48.402;9.994;2023-08-06T08:07:33;17.80;97.60
13585;DHT22;6863;48.402;9.994;2023-08-06T08:09:59;17.90;97.90
13585;DHT22;6863;48.402;9.994;2023-08-06T08:12:25;17.70;98.00
13585;DHT22;6863;48.402;9.994;2023-08-06T08:14:50;17.40;98.20
13585;DHT22;6863;48.402;9.994;2023-08-06T08:17:16;17.40;98.10
13585;DHT22;6863;48.402;9.994;2023-08-06T08:19:42;17.40;98.00
13585;DHT22;6863;48.402;9.994;2023-08-06T08:22:07;17.70;97.90
13585;DHT22;6863;48.402;9.994;2023-08-06T08:24:33;18.10;97.90
13585;DHT22;6863;48.402;9.994;2023-08-06T08:26:59;18.00;97.70
13585;DHT22;6863;48.402;9.994;2023-08-06T08:29:24;17.40;99.00
13585;DHT22;6863;48.402;9.994;2023-08-06T08:31:50;17.10;99.90
13585;DHT22;6863;48.402;9.994;2023-08-06T08:34:16;16.70;99.90
13585;DHT22;6863;48.402;9.994;2023-08-06T08:36:42;16.50;99.90
13585;DHT22;6863;48.402;9.994;2023-08-06T08:39:08;16.40;99.90
13585;DHT22;6863;48.402;9.994;2023-08-06T08:41:36;16.60;99.90
13585;DHT22;6863;48.402;9.994;2023-08-06T08:44:02;16.40;99.90
13585;DHT22;6863;48.402;9.994;2023-08-06T08:46:30;16.40;99.90
13585;DHT22;6863;48.402;9.994;2023-08-06T08:48:58;16.30;99.90
13585;DHT22;6863;48.402;9.994;2023-08-06T08:51:27;16.10;99.90
13585;DHT22;6863;48.402;9.994;2023-08-06T08:53:53;16.10;99.90
13585;DHT22;6863;48.402;9.994;2023-08-06T08:56:22;16.40;99.90
13585;DHT22;6863;48.402;9.994;2023-08-06T08:58:47;16.30;99.90
13585;DHT22;6863;48.402;9.994;2023-08-06T09:01:15;16.20;99.90
13585;DHT22;6863;48.402;9.994;2023-08-06T09:03:41;15.90;99.90
13585;DHT22;6863;48.402;9.994;2023-08-06T09:06:09;15.80;99.90
13585;DHT22;6863;48.402;9.994;2023-08-06T09:08:41;15.80;99.90
13585;DHT22;6863;48.402;9.994;2023-08-06T09:11:09;15.80;99.90
13585;DHT22;6863;48.402;9.994;2023-08-06T09:13:38;15.90;99.90
13585;DHT22;6863;48.402;9.994;2023-08-06T09:16:04;16.00;99.90
13585;DHT22;6863;48.402;9.994;2023-08-06T09:18:30;16.10;99.90
13585;DHT22;6863;48.402;9.994;2023-08-06T09:20:59;16.20;99.90
13585;DHT22;6863;48.402;9.994;2023-08-06T09:23:28;16.20;99.90
13585;DHT22;6863;48.402;9.994;2023-08-06T09:25:57;16.20;99.90
13585;DHT22;6863;48.402;9.994;2023-08-06T09:28:23;16.00;99.90
13585;DHT22;6863;48.402;9.994;2023-08-06T09:30:50;15.90;99.90
13585;DHT22;6863;48.402;9.994;2023-08-06T09:33:19;16.00;99.90
13585;DHT22;6863;48.402;9.994;2023-08-06T09:35:46;15.80;99.90
13585;DHT22;6863;48.402;9.994;2023-08-06T09:38:12;15.50;99.90
13585;DHT22;6863;48.402;9.994;2023-08-06T09:40:38;15.20;99.90
13585;DHT22;6863;48.402;9.994;2023-08-06T09:43:04;15.00;99.90
13585;DHT22;6863;48.402;9.994;2023-08-06T09:45:34;14.90;99.90
13585;DHT22;6863;48.402;9.994;2023-08-06T09:48:06;14.80;99.90
13585;DHT22;6863;48.402;9.994;2023-08-06T09:50:34;14.90;99.90
13585;DHT22;6863;48.402;9.994;2023-08-06T09:53:03;15.00;99.90
13585;DHT22;6863;48.402;9.994;2023-08-06T09:55:29;15.00;99.90
13585;DHT22;6863;48.402;9.994;2023-08-06T10:00:26;14.60;99.90
13585;DHT22;6863;48.402;9.994;2023-08-06T10:02:53;14.60;99.90
13585;DHT22;6863;48.402;9.994;2023-08-06T10:05:22;14.70;99.90
13585;DHT22;6863;48.402;9.994;2023-08-06T10:07:49;14.50;99.90
13585;DHT22;6863;48.402;9.994;2023-08-06T10:10:16;14.30;99.90
13585;DHT22;6863;48.402;9.994;2023-08-06T10:12:47;14.00;99.90
13585;DHT22;6863;48.402;9.994;2023-08-06T10:15:16;13.90;99.90
13585;DHT22;6863;48.402;9.994;2023-08-06T10:17:44;13.80;99.90
13585;DHT22;6863;48.402;9.994;2023-08-06T10:20:11;13.90;99.90
13585;DHT22;6863;48.402;9.994;2023-08-06T10:22:43;14.00;99.90
13585;DHT22;6863;48.402;9.994;2023-08-06T10:25:09;14.10;99.90
13585;DHT22;6863;48.402;9.994;2023-08-06T10:27:39;14.30;99.90
13585;DHT22;6863;48.402;9.994;2023-08-06T10:30:26;15.10;99.90
13585;DHT22;6863;48.402;9.994;2023-08-06T10:32:57;16.10;99.90
13585;DHT22;6863;48.402;9.994;2023-08-06T10:40:37;17.00;99.90
13585;DHT22;6863;48.402;9.994;2023-08-06T10:43:04;16.80;99.90
13585;DHT22;6863;48.402;9.994;2023-08-06T10:45:35;16.60;99.90
13585;DHT22;6863;48.402;9.994;2023-08-06T10:48:01;16.50;99.90
13585;DHT22;6863;48.402;9.994;2023-08-06T10:50:27;16.80;99.90
13585;DHT22;6863;48.402;9.994;2023-08-06T10:52:53;16.40;99.90
13585;DHT22;6863;48.402;9.994;2023-08-06T10:55:26;16.00;99.90
13585;DHT22;6863;48.402;9.994;2023-08-06T11:00:23;15.40;99.90
13585;DHT22;6863;48.402;9.994;2023-08-06T11:02:49;15.30;99.90
13585;DHT22;6863;48.402;9.994;2023-08-06T11:05:15;15.30;99.90
13585;DHT22;6863;48.402;9.994;2023-08-06T11:07:41;15.60;99.90
13585;DHT22;6863;48.402;9.994;2023-08-06T11:10:09;15.80;99.90
13585;DHT22;6863;48.402;9.994;2023-08-06T11:12:35;16.10;99.90
13585;DHT22;6863;48.402;9.994;2023-08-06T11:15:02;16.10;99.90
13585;DHT22;6863;48.402;9.994;2023-08-06T11:17:29;16.00;99.90
13585;DHT22;6863;48.402;9.994;2023-08-06T11:19:55;15.60;99.90
13585;DHT22;6863;48.402;9.994;2023-08-06T11:22:21;15.30;99.90
13585;DHT22;6863;48.402;9.994;2023-08-06T11:24:48;15.00;99.90
13585;DHT22;6863;48.402;9.994;2023-08-06T11:27:15;14.80;99.90
13585;DHT22;6863;48.402;9.994;2023-08-06T11:29:41;14.80;99.90
13585;DHT22;6863;48.402;9.994;2023-08-06T11:32:10;14.80;99.90
13585;DHT22;6863;48.402;9.994;2023-08-06T11:34:37;15.00;99.90
13585;DHT22;6863;48.402;9.994;2023-08-06T11:37:03;15.30;99.90
13585;DHT22;6863;48.402;9.994;2023-08-06T11:39:33;15.40;99.90
13585;DHT22;6863;48.402;9.994;2023-08-06T11:41:58;15.70;99.90
13585;DHT22;6863;48.402;9.994;2023-08-06T11:44:34;15.80;99.90
13585;DHT22;6863;48.402;9.994;2023-08-06T11:47:01;16.00;99.90
13585;DHT22;6863;48.402;9.994;2023-08-06T11:49:44;16.00;99.90
13585;DHT22;6863;48.402;9.994;2023-08-06T11:52:11;16.10;99.90
13585;DHT22;6863;48.402;9.994;2023-08-06T11:54:38;16.00;99.90
13585;DHT22;6863;48.402;9.994;2023-08-06T11:57:05;16.00;99.90
13585;DHT22;6863;48.402;9.994;2023-08-06T11:59:31;15.80;99.90
13585;DHT22;6863;48.402;9.994;2023-08-06T12:01:57;15.80;99.90
13585;DHT22;6863;48.402;9.994;2023-08-06T12:04:25;15.90;99.90
13585;DHT22;6863;48.402;9.994;2023-08-06T12:06:50;16.10;99.90
13585;DHT22;6863;48.402;9.994;2023-08-06T12:09:16;16.40;99.90
13585;DHT22;6863;48.402;9.994;2023-08-06T12:11:41;16.90;99.90
13585;DHT22;6863;48.402;9.994;2023-08-06T12:14:07;16.90;99.90
13585;DHT22;6863;48.402;9.994;2023-08-06T12:16:33;16.40;99.90
13585;DHT22;6863;48.402;9.994;2023-08-06T12:18:58;16.10;99.90
13585;DHT22;6863;48.402;9.994;2023-08-06T12:21:24;16.00;99.90
13585;DHT22;6863;48.402;9.994;2023-08-06T12:23:49;16.00;99.90
13585;DHT22;6863;48.402;9.994;2023-08-06T12:26:15;16.10;99.90
13585;DHT22;6863;48.402;9.994;2023-08-06T12:28:40;16.20;99.90
13585;DHT22;6863;48.402;9.994;2023-08-06T12:31:06;16.30;99.90
13585;DHT22;6863;48.402;9.994;2023-08-06T12:33:32;16.40;99.90
13585;DHT22;6863;48.402;9.994;2023-08-06T12:35:57;16.40;99.90
13585;DHT22;6863;48.402;9.994;2023-08-06T12:38:23;16.30;99.90
13585;DHT22;6863;48.402;9.994;2023-08-06T12:40:48;15.80;99.90
13585;DHT22;6863;48.402;9.994;2023-08-06T12:43:14;15.30;99.90
13585;DHT22;6863;48.402;9.994;2023-08-06T12:45:41;15.20;99.90
13585;DHT22;6863;48.402;9.994;2023-08-06T12:48:06;15.00;99.90
13585;DHT22;6863;48.402;9.994;2023-08-06T12:50:32;14.80;99.90
13585;DHT22;6863;48.402;9.994;2023-08-06T12:53:00;14.60;99.90
13585;DHT22;6863;48.402;9.994;2023-08-06T12:55:26;14.50;99.90
13585;DHT22;6863;48.402;9.994;2023-08-06T13:00:26;15.50;99.90
13585;DHT22;6863;48.402;9.994;2023-08-06T13:02:52;16.20;99.90
13585;DHT22;6863;48.402;9.994;2023-08-06T13:05:17;16.80;99.90
13585;DHT22;6863;48.402;9.994;2023-08-06T13:07:43;17.40;99.90
13585;DHT22;6863;48.402;9.994;2023-08-06T13:10:12;18.30;99.90
13585;DHT22;6863;48.402;9.994;2023-08-06T13:12:37;19.40;99.90
13585;DHT22;6863;48.402;9.994;2023-08-06T13:15:06;20.00;96.90
13585;DHT22;6863;48.402;9.994;2023-08-06T13:17:32;19.90;96.40
13585;DHT22;6863;48.402;9.994;2023-08-06T13:19:58;19.60;96.20
13585;DHT22;6863;48.402;9.994;2023-08-06T13:22:23;19.10;96.80
13585;DHT22;6863;48.402;9.994;2023-08-06T13:24:49;18.90;96.30
13585;DHT22;6863;48.402;9.994;2023-08-06T13:27:14;19.10;96.60
13585;DHT22;6863;48.402;9.994;2023-08-06T13:29:40;19.80;95.10
13585;DHT22;6863;48.402;9.994;2023-08-06T13:32:06;20.50;95.40
13585;DHT22;6863;48.402;9.994;2023-08-06T13:34:31;20.50;93.20
13585;DHT22;6863;48.402;9.994;2023-08-06T13:36:57;19.90;93.60
13585;DHT22;6863;48.402;9.994;2023-08-06T13:39:23;19.50;93.50
13585;DHT22;6863;48.402;9.994;2023-08-06T13:41:48;19.60;93.70
13585;DHT22;6863;48.402;9.994;2023-08-06T13:44:14;19.90;93.10
13585;DHT22;6863;48.402;9.994;2023-08-06T13:46:40;20.50;91.60
13585;DHT22;6863;48.402;9.994;2023-08-06T13:49:06;21.10;90.60
13585;DHT22;6863;48.402;9.994;2023-08-06T13:51:32;21.10;90.00
13585;DHT22;6863;48.402;9.994;2023-08-06T13:53:59;20.60;89.40
13585;DHT22;6863;48.402;9.994;2023-08-06T13:56:25;19.40;91.10
13585;DHT22;6863;48.402;9.994;2023-08-06T13:58:50;18.80;92.50
13585;DHT22;6863;48.402;9.994;2023-08-06T14:01:17;18.80;93.10
13585;DHT22;6863;48.402;9.994;2023-08-06T14:03:44;18.80;92.80
13585;DHT22;6863;48.402;9.994;2023-08-06T14:06:10;18.70;93.50
13585;DHT22;6863;48.402;9.994;2023-08-06T14:08:35;18.70;93.80
13585;DHT22;6863;48.402;9.994;2023-08-06T14:11:01;18.70;93.10
13585;DHT22;6863;48.402;9.994;2023-08-06T14:13:26;18.60;93.10
13585;DHT22;6863;48.402;9.994;2023-08-06T14:15:52;18.30;93.30
13585;DHT22;6863;48.402;9.994;2023-08-06T14:18:18;18.20;93.60
13585;DHT22;6863;48.402;9.994;2023-08-06T14:20:44;18.00;93.80
13585;DHT22;6863;48.402;9.994;2023-08-06T14:23:10;17.70;93.60
13585;DHT22;6863;48.402;9.994;2023-08-06T14:25:35;17.40;94.40
13585;DHT22;6863;48.402;9.994;2023-08-06T14:28:01;17.60;94.80
13585;DHT22;6863;48.402;9.994;2023-08-06T14:30:27;17.80;94.30
13585;DHT22;6863;48.402;9.994;2023-08-06T14:32:52;17.50;94.50
13585;DHT22;6863;48.402;9.994;2023-08-06T14:35:18;17.50;94.80
13585;DHT22;6863;48.402;9.994;2023-08-06T14:37:43;17.40;95.00
13585;DHT22;6863;48.402;9.994;2023-08-06T14:40:11;17.20;95.20
13585;DHT22;6863;48.402;9.994;2023-08-06T14:42:36;16.80;95.20
13585;DHT22;6863;48.402;9.994;2023-08-06T14:45:03;16.70;96.40
13585;DHT22;6863;48.402;9.994;2023-08-06T14:47:29;16.40;96.80
13585;DHT22;6863;48.402;9.994;2023-08-06T14:49:54;16.10;97.40
13585;DHT22;6863;48.402;9.994;2023-08-06T14:52:20;16.00;98.90
13585;DHT22;6863;48.402;9.994;2023-08-06T14:54:46;16.10;99.50
13585;DHT22;6863;48.402;9.994;2023-08-06T14:57:12;16.40;99.80
13585;DHT22;6863;48.402;9.994;2023-08-06T14:59:39;16.70;99.00
13585;DHT22;6863;48.402;9.994;2023-08-06T15:02:05;17.00;98.20
13585;DHT22;6863;48.402;9.994;2023-08-06T15:04:31;17.70;97.60
13585;DHT22;6863;48.402;9.994;2023-08-06T15:06:57;18.30;96.20
13585;DHT22;6863;48.402;9.994;2023-08-06T15:09:22;18.80;95.30
13585;DHT22;6863;48.402;9.994;2023-08-06T15:11:48;18.70;94.80
13585;DHT22;6863;48.402;9.994;2023-08-06T15:14:14;18.40;95.00
13585;DHT22;6863;48.402;9.994;2023-08-06T15:16:40;18.30;94.70
13585;DHT22;6863;48.402;9.994;2023-08-06T15:19:06;17.80;95.20
13585;DHT22;6863;48.402;9.994;2023-08-06T15:21:31;17.80;95.50
13585;DHT22;6863;48.402;9.994;2023-08-06T15:23:57;17.60;95.50
13585;DHT22;6863;48.402;9.994;2023-08-06T15:26:22;17.50;95.90
13585;DHT22;6863;48.402;9.994;2023-08-06T15:28:48;17.10;96.60
13585;DHT22;6863;48.402;9.994;2023-08-06T15:31:14;17.00;97.50
13585;DHT22;6863;48.402;9.994;2023-08-06T15:33:39;17.10;98.40
13585;DHT22;6863;48.402;9.994;2023-08-06T15:36:05;17.10;97.70
13585;DHT22;6863;48.402;9.994;2023-08-06T15:38:31;16.90;98.00
13585;DHT22;6863;48.402;9.994;2023-08-06T15:40:56;17.00;98.00
13585;DHT22;6863;48.402;9.994;2023-08-06T15:43:22;17.00;97.20
13585;DHT22;6863;48.402;9.994;2023-08-06T15:45:48;17.00;96.20
13585;DHT22;6863;48.402;9.994;2023-08-06T15:48:13;16.70;97.20
13585;DHT22;6863;48.402;9.994;2023-08-06T15:50:39;16.30;97.70
13585;DHT22;6863;48.402;9.994;2023-08-06T15:53:05;16.30;98.10
13585;DHT22;6863;48.402;9.994;2023-08-06T15:55:30;16.20;98.20
13585;DHT22;6863;48.402;9.994;2023-08-06T15:57:57;16.30;98.20
13585;DHT22;6863;48.402;9.994;2023-08-06T16:00:23;16.60;97.60